createdAt,value
2023-02-16T00:01:18.888Z,45.97
2023-02-16T00:03:22.566Z,48.97
2023-02-16T00:05:32.892Z,49.72
2023-02-16T00:07:34.332Z,46.40
2023-02-16T00:09:35.806Z,55.15
2023-02-16T00:11:56.168Z,47.55
2023-02-16T00:13:57.651Z,49.10
2023-02-16T00:15:59.171Z,54.83
2023-02-16T00:18:02.869Z,54.10
2023-02-16T00:20:14.081Z,55.80
2023-02-16T00:22:15.521Z,52.00
2023-02-16T00:24:17.114Z,47.67
2023-02-16T00:26:22.796Z,48.47
2023-02-16T00:28:24.245Z,56.30
2023-02-16T00:30:25.836Z,50.92
2023-02-16T00:32:27.419Z,50.90
2023-02-16T00:34:32.943Z,49.60
2023-02-16T00:36:34.418Z,44.25
2023-02-16T00:38:36.193Z,48.58
2023-02-16T00:40:37.945Z,47.70
2023-02-16T00:42:39.662Z,49.22
2023-02-16T00:45:01.830Z,53.13
2023-02-16T00:47:15.296Z,45.80
2023-02-16T00:49:18.937Z,54.78
2023-02-16T00:51:25.789Z,45.53
2023-02-16T00:53:27.808Z,53.05
2023-02-16T00:55:35.289Z,55.78
2023-02-16T00:57:51.152Z,51.45
2023-02-16T01:00:00.566Z,46.88
2023-02-16T01:02:02.110Z,53.75
2023-02-16T01:04:07.270Z,47.53
2023-02-16T01:06:29.146Z,57.28
2023-02-16T01:08:49.022Z,49.33
2023-02-16T01:11:10.469Z,49.25
2023-02-16T01:13:12.140Z,50.20
2023-02-16T01:15:15.182Z,49.85
2023-02-16T01:17:16.672Z,56.00
2023-02-16T01:19:18.208Z,57.15
2023-02-16T01:21:21.821Z,53.22
2023-02-16T01:23:23.309Z,48.40
2023-02-16T01:25:24.800Z,53.78
2023-02-16T01:27:26.261Z,46.63
2023-02-16T01:29:27.732Z,53.28
2023-02-16T01:31:29.315Z,49.97
2023-02-16T01:33:30.835Z,48.47
2023-02-16T01:35:34.227Z,52.67
2023-02-16T01:37:35.762Z,49.97
2023-02-16T01:39:37.231Z,48.75
2023-02-16T01:41:51.450Z,53.33
2023-02-16T01:43:59.662Z,52.90
2023-02-16T01:46:11.681Z,45.33
2023-02-16T01:48:21.955Z,46.75
2023-02-16T01:50:34.276Z,48.00
2023-02-16T01:52:43.200Z,54.70
2023-02-16T01:54:53.408Z,47.78
2023-02-16T01:57:04.648Z,56.10
2023-02-16T01:59:22.768Z,47.25
2023-02-16T02:01:37.534Z,48.08
2023-02-16T02:03:57.714Z,47.20
2023-02-16T02:05:59.293Z,49.53
2023-02-16T02:08:15.648Z,41.50
2023-02-16T02:10:24.024Z,45.17
2023-02-16T02:12:48.093Z,53.05
2023-02-16T02:14:49.601Z,53.72
2023-02-16T02:16:57.768Z,52.47
2023-02-16T02:18:59.241Z,45.80
2023-02-16T02:21:28.363Z,48.45
2023-02-16T02:24:07.379Z,49.03
2023-02-16T02:26:33.745Z,48.53
2023-02-16T02:28:55.090Z,47.25
2023-02-16T02:31:15.420Z,48.90
2023-02-16T02:33:22.744Z,55.47
2023-02-16T02:35:27.305Z,47.03
2023-02-16T02:37:59.819Z,49.45
2023-02-16T02:40:34.858Z,48.85
2023-02-16T02:42:49.461Z,47.38
2023-02-16T02:45:35.420Z,44.42
2023-02-16T02:47:39.180Z,55.72
2023-02-16T02:49:42.088Z,46.15
2023-02-16T02:51:43.613Z,40.58
2023-02-16T02:54:30.909Z,50.50
2023-02-16T02:56:51.255Z,49.55
2023-02-16T02:59:16.680Z,47.67
2023-02-16T03:01:19.157Z,46.90
2023-02-16T03:03:32.825Z,44.70
2023-02-16T03:05:36.985Z,41.97
2023-02-16T03:07:48.057Z,45.20
2023-02-16T03:10:09.510Z,47.65
2023-02-16T03:12:31.551Z,49.47
2023-02-16T03:14:46.620Z,49.47
2023-02-16T03:17:11.628Z,49.72
2023-02-16T03:19:35.547Z,51.40
2023-02-16T03:21:56.358Z,49.92
2023-02-16T03:24:18.704Z,54.30
2023-02-16T03:26:39.289Z,50.30
2023-02-16T03:29:02.160Z,49.28
2023-02-16T03:31:06.396Z,50.72
2023-02-16T03:33:08.170Z,51.30
2023-02-16T03:35:12.693Z,47.47
2023-02-16T03:37:14.699Z,49.22
2023-02-16T03:39:17.612Z,55.33
2023-02-16T03:41:19.070Z,50.65
2023-02-16T03:43:25.715Z,47.08
2023-02-16T03:45:28.638Z,48.58
2023-02-16T03:47:30.235Z,47.97
2023-02-16T03:49:31.722Z,49.22
2023-02-16T03:51:33.252Z,51.88
2023-02-16T03:53:34.751Z,49.25
2023-02-16T03:55:37.541Z,47.33
2023-02-16T03:57:39.627Z,52.08
2023-02-16T03:59:41.114Z,48.38
2023-02-16T04:01:42.587Z,42.47
2023-02-16T04:03:44.133Z,46.78
2023-02-16T04:05:45.796Z,53.13
2023-02-16T04:07:47.305Z,45.00
2023-02-16T04:09:48.794Z,46.50
2023-02-16T04:12:08.945Z,45.17
2023-02-16T04:14:10.452Z,47.53
2023-02-16T04:16:11.953Z,56.30
2023-02-16T04:18:13.500Z,47.97
2023-02-16T04:20:22.214Z,51.47
2023-02-16T04:22:23.678Z,53.03
2023-02-16T04:24:25.219Z,46.15
2023-02-16T04:26:26.674Z,44.95
2023-02-16T04:28:28.132Z,44.97
2023-02-16T04:30:31.385Z,40.33
2023-02-16T04:32:32.992Z,51.60
2023-02-16T04:34:34.479Z,47.85
2023-02-16T04:36:35.980Z,41.67
2023-02-16T04:38:37.464Z,49.45
2023-02-16T04:40:38.922Z,45.58
2023-02-16T04:42:44.910Z,45.58
2023-02-16T04:44:46.427Z,51.38
2023-02-16T04:46:47.878Z,48.40
2023-02-16T04:48:49.416Z,45.60
2023-02-16T04:50:51.097Z,50.90
2023-02-16T04:52:52.567Z,55.17
2023-02-16T04:54:54.113Z,49.45
2023-02-16T04:56:55.609Z,54.55
2023-02-16T04:58:57.062Z,44.47
2023-02-16T05:00:58.543Z,52.45
2023-02-16T05:03:00.090Z,50.72
2023-02-16T05:05:01.549Z,50.42
2023-02-16T05:07:03.085Z,53.53
2023-02-16T05:09:05.889Z,56.92
2023-02-16T05:11:26.059Z,49.35
2023-02-16T05:13:45.761Z,48.30
2023-02-16T05:15:47.388Z,50.63
2023-02-16T05:17:48.987Z,52.25
2023-02-16T05:19:52.799Z,61.60
2023-02-16T05:21:54.286Z,49.90
2023-02-16T05:23:55.742Z,52.42
2023-02-16T05:25:57.204Z,53.05
2023-02-16T05:27:58.741Z,57.78
2023-02-16T05:30:00.270Z,54.67
2023-02-16T05:32:04.578Z,54.80
2023-02-16T05:34:06.419Z,55.67
2023-02-16T05:36:08.180Z,60.08
2023-02-16T05:38:09.665Z,62.65
2023-02-16T05:40:11.746Z,64.45
2023-02-16T05:42:13.452Z,57.40
2023-02-16T05:44:14.915Z,59.13
2023-02-16T05:46:16.452Z,61.70
2023-02-16T05:48:18.276Z,65.32
2023-02-16T05:50:19.801Z,62.60
2023-02-16T05:52:21.380Z,62.53
2023-02-16T05:54:22.959Z,59.88
2023-02-16T05:56:25.400Z,56.72
2023-02-16T05:58:26.922Z,60.03
2023-02-16T06:00:28.630Z,58.95
2023-02-16T06:02:30.202Z,59.67
2023-02-16T06:04:32.579Z,55.53
2023-02-16T06:06:34.750Z,54.85
2023-02-16T06:08:37.307Z,57.63
2023-02-16T06:10:38.779Z,60.53
2023-02-16T06:12:40.235Z,58.72
2023-02-16T06:14:41.700Z,57.03
2023-02-16T06:16:45.548Z,58.70
2023-02-16T06:18:47.014Z,54.97
2023-02-16T06:20:48.994Z,72.72
2023-02-16T06:22:50.463Z,62.28
2023-02-16T06:24:52.107Z,55.25
2023-02-16T06:26:53.657Z,59.55
2023-02-16T06:28:55.630Z,56.00
2023-02-16T06:30:57.225Z,62.63
2023-02-16T06:32:58.953Z,60.05
2023-02-16T06:35:00.423Z,57.40
2023-02-16T06:37:01.902Z,55.28
2023-02-16T06:39:03.821Z,53.80
2023-02-16T06:41:06.157Z,58.25
2023-02-16T06:43:08.116Z,59.83
2023-02-16T06:45:10.171Z,54.03
2023-02-16T06:47:11.736Z,52.97
2023-02-16T06:49:18.556Z,57.78
2023-02-16T06:51:20.785Z,51.92
2023-02-16T06:53:22.327Z,50.88
2023-02-16T06:55:23.818Z,54.58
2023-02-16T06:57:25.330Z,55.00
2023-02-16T06:59:26.835Z,59.25
2023-02-16T07:01:28.795Z,57.20
2023-02-16T07:03:30.475Z,56.03
2023-02-16T07:05:32.195Z,55.40
2023-02-16T07:07:33.671Z,52.60
2023-02-16T07:09:38.157Z,52.20
2023-02-16T07:11:39.949Z,48.95
2023-02-16T07:13:41.507Z,48.47
2023-02-16T07:15:42.978Z,54.67
2023-02-16T07:17:44.477Z,53.40
2023-02-16T07:19:46.019Z,50.15
2023-02-16T07:21:47.537Z,50.20
2023-02-16T07:23:49.346Z,57.83
2023-02-16T07:25:50.841Z,51.83
2023-02-16T07:27:54.601Z,51.42
2023-02-16T07:29:56.106Z,46.65
2023-02-16T07:31:57.826Z,46.63
2023-02-16T07:33:59.414Z,49.63
2023-02-16T07:36:00.972Z,50.65
2023-02-16T07:38:02.757Z,51.47
2023-02-16T07:40:04.955Z,50.50
2023-02-16T07:42:06.462Z,55.60
2023-02-16T07:44:08.363Z,51.20
2023-02-16T07:46:10.761Z,48.22
2023-02-16T07:48:13.901Z,52.42
2023-02-16T07:50:16.498Z,49.72
2023-02-16T07:52:18.004Z,46.75
2023-02-16T07:54:19.455Z,50.97
2023-02-16T07:56:23.245Z,50.05
2023-02-16T07:58:27.602Z,48.40
2023-02-16T08:00:29.161Z,50.25
2023-02-16T08:02:30.739Z,49.15
2023-02-16T08:04:32.220Z,47.75
2023-02-16T08:06:37.055Z,53.83
2023-02-16T08:08:39.307Z,47.13
2023-02-16T08:10:40.790Z,55.35
2023-02-16T08:12:42.676Z,49.33
2023-02-16T08:14:46.611Z,53.20
2023-02-16T08:16:50.365Z,50.28
2023-02-16T08:18:56.309Z,49.63
2023-02-16T08:21:04.133Z,46.80
2023-02-16T08:23:07.800Z,53.65
2023-02-16T08:25:09.342Z,49.28
2023-02-16T08:27:10.884Z,46.33
2023-02-16T08:29:14.968Z,45.08
2023-02-16T08:31:19.131Z,44.78
2023-02-16T08:33:20.650Z,52.92
2023-02-16T08:35:22.618Z,52.65
2023-02-16T08:37:25.224Z,46.63
2023-02-16T08:39:30.718Z,49.58
2023-02-16T08:41:35.892Z,46.30
2023-02-16T08:43:37.392Z,42.95
2023-02-16T08:45:45.255Z,40.88
2023-02-16T08:47:46.851Z,48.33
2023-02-16T08:49:48.350Z,46.28
2023-02-16T08:51:52.961Z,43.47
2023-02-16T08:53:55.932Z,45.03
2023-02-16T08:55:58.666Z,46.10
2023-02-16T08:58:00.965Z,48.42
2023-02-16T09:00:21.049Z,43.95
2023-02-16T09:02:22.818Z,46.47
2023-02-16T09:04:25.606Z,45.83
2023-02-16T09:06:27.492Z,48.55
2023-02-16T09:08:29.314Z,48.03
2023-02-16T09:10:30.776Z,47.45
2023-02-16T09:12:33.698Z,39.78
2023-02-16T09:14:35.141Z,50.03
2023-02-16T09:16:39.406Z,47.38
2023-02-16T09:18:42.002Z,48.65
2023-02-16T09:20:46.993Z,44.28
2023-02-16T09:22:48.689Z,41.63
2023-02-16T09:24:50.159Z,46.63
2023-02-16T09:26:52.041Z,47.95
2023-02-16T09:28:53.900Z,46.38
2023-02-16T09:30:55.449Z,48.03
2023-02-16T09:32:59.247Z,42.70
2023-02-16T09:35:00.721Z,45.65
2023-02-16T09:37:02.224Z,47.92
2023-02-16T09:39:03.831Z,42.63
2023-02-16T09:41:20.546Z,45.63
2023-02-16T09:43:46.163Z,44.88
2023-02-16T09:45:51.706Z,45.53
2023-02-16T09:47:55.161Z,50.42
2023-02-16T09:50:03.858Z,41.08
2023-02-16T09:52:08.377Z,41.33
2023-02-16T09:54:31.819Z,51.78
2023-02-16T09:56:46.340Z,44.95
2023-02-16T09:59:24.556Z,47.05
2023-02-16T10:01:42.245Z,42.67
2023-02-16T10:03:49.279Z,46.63
2023-02-16T10:06:05.620Z,44.33
2023-02-16T10:08:25.107Z,49.88
2023-02-16T10:10:56.207Z,40.20
2023-02-16T10:13:16.968Z,45.80
2023-02-16T10:15:23.361Z,44.08
2023-02-16T10:17:44.791Z,41.42
2023-02-16T10:20:21.913Z,48.13
2023-02-16T10:22:38.535Z,49.50
2023-02-16T10:24:49.861Z,42.42
2023-02-16T10:26:59.663Z,49.45
2023-02-16T10:29:07.634Z,47.80
2023-02-16T10:31:36.339Z,48.67
2023-02-16T10:33:46.086Z,48.80
2023-02-16T10:35:49.950Z,43.60
2023-02-16T10:38:01.660Z,47.88
2023-02-16T10:40:23.155Z,43.10
2023-02-16T10:42:28.252Z,47.70
2023-02-16T10:44:40.247Z,46.85
2023-02-16T10:46:47.881Z,48.33
2023-02-16T10:48:54.322Z,46.17
2023-02-16T10:51:01.309Z,49.05
2023-02-16T10:53:09.643Z,46.95
2023-02-16T10:55:13.135Z,43.97
2023-02-16T10:57:27.042Z,42.10
2023-02-16T10:59:38.704Z,46.47
2023-02-16T11:01:45.068Z,48.88
2023-02-16T11:03:50.316Z,47.30
2023-02-16T11:05:53.411Z,49.35
2023-02-16T11:07:57.126Z,43.80
2023-02-16T11:10:02.728Z,49.67
2023-02-16T11:12:31.031Z,47.08
2023-02-16T11:14:32.860Z,46.92
2023-02-16T11:16:34.641Z,48.83
2023-02-16T11:18:41.629Z,43.42
2023-02-16T11:20:46.006Z,48.42
2023-02-16T11:22:47.503Z,45.40
2023-02-16T11:24:48.983Z,45.67
2023-02-16T11:27:02.166Z,44.80
2023-02-16T11:29:18.871Z,53.08
2023-02-16T11:31:39.729Z,51.30
2023-02-16T11:33:42.994Z,50.72
2023-02-16T11:35:45.724Z,44.13
2023-02-16T11:37:47.506Z,46.97
2023-02-16T11:39:56.664Z,42.05
2023-02-16T11:42:02.768Z,48.55
2023-02-16T11:44:04.745Z,44.05
2023-02-16T11:46:17.608Z,44.05
2023-02-16T11:48:28.552Z,45.03
2023-02-16T11:50:35.398Z,48.90
2023-02-16T11:52:37.067Z,46.90
2023-02-16T11:54:48.796Z,44.92
2023-02-16T11:57:05.239Z,46.63
2023-02-16T11:59:21.493Z,50.78
2023-02-16T12:01:58.522Z,50.28
2023-02-16T12:04:27.014Z,47.20
2023-02-16T12:07:07.672Z,43.80
2023-02-16T12:09:43.230Z,49.78
2023-02-16T12:12:40.467Z,50.95
2023-02-16T12:15:16.949Z,51.63
2023-02-16T12:17:21.673Z,55.53
2023-02-16T12:19:31.970Z,47.00
2023-02-16T12:21:53.639Z,49.22
2023-02-16T12:24:22.035Z,55.10
2023-02-16T12:26:38.323Z,58.38
2023-02-16T12:28:57.952Z,52.90
2023-02-16T12:31:11.612Z,56.92
2023-02-16T12:33:15.849Z,52.50
2023-02-16T12:35:55.109Z,52.60
2023-02-16T12:38:29.600Z,52.28
2023-02-16T12:40:58.305Z,51.78
2023-02-16T12:43:32.467Z,51.72
2023-02-16T12:45:37.450Z,54.58
2023-02-16T12:47:49.781Z,61.90
2023-02-16T12:50:14.009Z,60.88
2023-02-16T12:52:34.157Z,54.67
2023-02-16T12:54:43.233Z,55.50
2023-02-16T12:57:13.608Z,51.22
2023-02-16T12:59:29.845Z,53.55
2023-02-16T13:01:35.699Z,47.72
2023-02-16T13:03:50.140Z,53.85
2023-02-16T13:06:03.129Z,52.38
2023-02-16T13:08:42.878Z,55.13
2023-02-16T13:10:52.825Z,57.38
2023-02-16T13:13:00.757Z,54.90
2023-02-16T13:15:10.519Z,57.42
2023-02-16T13:17:17.875Z,59.70
2023-02-16T13:19:19.627Z,55.40
2023-02-16T13:21:51.184Z,55.05
2023-02-16T13:24:17.650Z,53.38
2023-02-16T13:26:28.306Z,48.33
2023-02-16T13:28:48.399Z,51.28
2023-02-16T13:30:50.038Z,54.00
2023-02-16T13:33:37.019Z,58.40
2023-02-16T13:36:22.978Z,57.55
2023-02-16T13:38:36.156Z,50.25
2023-02-16T13:40:56.304Z,57.28
2023-02-16T13:43:13.194Z,54.30
2023-02-16T13:45:24.421Z,51.55
2023-02-16T13:47:38.204Z,51.58
2023-02-16T13:49:42.936Z,55.58
2023-02-16T13:51:46.284Z,55.70
2023-02-16T13:54:02.251Z,57.42
2023-02-16T13:56:14.629Z,52.20
2023-02-16T13:58:17.032Z,55.55
2023-02-16T14:00:42.305Z,52.88
2023-02-16T14:02:57.471Z,53.45
2023-02-16T14:05:01.945Z,52.72
2023-02-16T14:07:03.417Z,54.58
2023-02-16T14:09:14.002Z,56.17
2023-02-16T14:11:15.511Z,56.58
2023-02-16T14:13:17.372Z,55.90
2023-02-16T14:15:20.888Z,52.00
2023-02-16T14:17:26.107Z,54.40
2023-02-16T14:19:27.604Z,59.08
2023-02-16T14:21:35.378Z,61.33
2023-02-16T14:23:36.933Z,55.88
2023-02-16T14:25:40.229Z,62.03
2023-02-16T14:27:47.341Z,59.70
2023-02-16T14:29:59.183Z,56.30
2023-02-16T14:32:24.223Z,63.78
2023-02-16T14:34:31.333Z,59.00
2023-02-16T14:36:33.383Z,59.25
2023-02-16T14:38:38.502Z,61.25
2023-02-16T14:40:55.473Z,59.60
2023-02-16T14:43:01.545Z,53.38
2023-02-16T14:45:31.888Z,61.33
2023-02-16T14:48:05.242Z,61.13
2023-02-16T14:50:37.276Z,58.83
2023-02-16T14:53:00.349Z,60.33
2023-02-16T14:55:12.084Z,67.43
2023-02-16T14:57:21.517Z,67.38
2023-02-16T14:59:54.650Z,65.43
2023-02-16T15:01:56.384Z,68.47
2023-02-16T15:03:59.640Z,65.10
2023-02-16T15:06:05.936Z,72.00
2023-02-16T15:08:37.105Z,65.05
2023-02-16T15:10:40.243Z,63.47
2023-02-16T15:12:43.979Z,65.72
2023-02-16T15:14:49.631Z,63.00
2023-02-16T15:16:53.307Z,70.43
2023-02-16T15:18:56.846Z,69.10
2023-02-16T15:20:59.128Z,77.65
2023-02-16T15:23:07.927Z,74.68
2023-02-16T15:27:23.601Z,59.25
2023-02-16T15:29:27.439Z,69.95
2023-02-16T15:31:33.119Z,60.80
2023-02-16T15:33:39.573Z,70.05
2023-02-16T15:35:43.430Z,66.85
2023-02-16T15:37:44.870Z,64.57
2023-02-16T15:40:03.027Z,61.60
2023-02-16T15:42:22.043Z,57.92
2023-02-16T15:44:36.752Z,59.47
2023-02-16T15:46:42.100Z,60.53
2023-02-16T15:48:43.634Z,71.47
2023-02-16T15:50:45.905Z,59.53
2023-02-16T15:52:47.926Z,56.30
2023-02-16T15:54:50.239Z,60.33
2023-02-16T15:56:54.075Z,56.75
2023-02-16T15:58:58.000Z,65.90
2023-02-16T16:01:00.490Z,60.53
2023-02-16T16:03:02.201Z,56.22
2023-02-16T16:05:07.304Z,63.95
2023-02-16T16:07:14.244Z,58.25
2023-02-16T16:09:33.054Z,67.43
2023-02-16T16:11:36.393Z,69.18
2023-02-16T16:13:38.485Z,65.80
2023-02-16T16:15:46.760Z,60.08
2023-02-16T16:17:49.507Z,65.93
2023-02-16T16:19:51.368Z,71.45
2023-02-16T16:21:55.194Z,58.78
2023-02-16T16:24:06.504Z,62.08
2023-02-16T16:26:19.201Z,62.55
2023-02-16T16:28:41.133Z,58.00
2023-02-16T16:30:45.220Z,61.72
2023-02-16T16:32:47.201Z,59.75
2023-02-16T16:34:49.960Z,66.68
2023-02-16T16:36:56.996Z,64.13
2023-02-16T16:39:16.433Z,61.40
2023-02-16T16:41:28.534Z,58.13
2023-02-16T16:43:32.574Z,57.13
2023-02-16T16:45:38.303Z,64.03
2023-02-16T16:47:41.266Z,60.83
2023-02-16T16:49:55.458Z,69.70
2023-02-16T16:51:57.066Z,59.80
2023-02-16T16:54:00.908Z,65.05
2023-02-16T16:56:02.486Z,60.50
2023-02-16T16:58:07.867Z,60.53
2023-02-16T17:00:10.937Z,64.03
2023-02-16T17:02:12.522Z,71.53
2023-02-16T17:04:14.079Z,63.40
2023-02-16T17:06:17.588Z,65.22
2023-02-16T17:08:19.241Z,66.85
2023-02-16T17:10:22.010Z,70.05
2023-02-16T17:12:24.782Z,65.65
2023-02-16T17:14:27.719Z,65.10
2023-02-16T17:16:36.558Z,64.35
2023-02-16T17:18:38.068Z,68.25
2023-02-16T17:20:39.525Z,62.90
2023-02-16T17:22:41.036Z,63.47
2023-02-16T17:24:42.690Z,61.53
2023-02-16T17:26:44.147Z,63.25
2023-02-16T17:28:45.674Z,61.97
2023-02-16T17:30:47.223Z,61.45
2023-02-16T17:32:48.818Z,62.35
2023-02-16T17:34:50.269Z,63.28
2023-02-16T17:36:52.841Z,64.88
2023-02-16T17:38:54.964Z,56.88
2023-02-16T17:40:57.739Z,61.15
2023-02-16T17:42:59.214Z,63.10
2023-02-16T17:45:00.660Z,66.47
2023-02-16T17:47:02.785Z,60.58
2023-02-16T17:49:04.258Z,60.72
2023-02-16T17:51:09.964Z,65.95
2023-02-16T17:53:14.013Z,66.68
2023-02-16T17:55:15.699Z,65.38
2023-02-16T17:57:17.921Z,62.45
2023-02-16T17:59:19.520Z,66.80
2023-02-16T18:01:21.184Z,63.00
2023-02-16T18:03:23.124Z,64.25
2023-02-16T18:05:24.623Z,65.10
2023-02-16T18:07:26.394Z,63.05
2023-02-16T18:09:27.858Z,65.57
2023-02-16T18:11:29.510Z,61.60
2023-02-16T18:13:31.583Z,57.75
2023-02-16T18:15:33.766Z,65.13
2023-02-16T18:17:35.267Z,58.28
2023-02-16T18:19:36.730Z,70.20
2023-02-16T18:21:38.190Z,59.45
2023-02-16T18:23:40.096Z,62.25
2023-02-16T18:25:43.958Z,59.30
2023-02-16T18:27:45.695Z,57.65
2023-02-16T18:29:47.273Z,58.85
2023-02-16T18:31:48.814Z,57.75
2023-02-16T18:33:50.657Z,56.53
2023-02-16T18:35:55.062Z,56.70
2023-02-16T18:37:56.524Z,54.05
2023-02-16T18:39:57.999Z,54.22
2023-02-16T18:41:59.477Z,52.90
2023-02-16T18:44:01.414Z,56.25
2023-02-16T18:46:08.012Z,56.05
2023-02-16T18:48:09.700Z,53.05
2023-02-16T18:50:12.440Z,55.95
2023-02-16T18:52:13.926Z,58.92
2023-02-16T18:54:15.475Z,56.40
2023-02-16T18:56:17.033Z,56.47
2023-02-16T18:58:18.688Z,52.55
2023-02-16T19:00:21.801Z,56.47
2023-02-16T19:02:23.252Z,52.78
2023-02-16T19:04:25.941Z,51.47
2023-02-16T19:06:27.965Z,53.78
2023-02-16T19:08:29.404Z,50.20
2023-02-16T19:10:31.337Z,53.03
2023-02-16T19:12:32.791Z,55.13
2023-02-16T19:14:34.384Z,52.95
2023-02-16T19:16:35.864Z,49.17
2023-02-16T19:18:37.319Z,49.60
2023-02-16T19:20:38.774Z,50.63
2023-02-16T19:22:40.380Z,48.88
2023-02-16T19:24:41.864Z,56.10
2023-02-16T19:26:43.352Z,52.97
2023-02-16T19:28:45.777Z,62.22
2023-02-16T19:30:49.254Z,48.67
2023-02-16T19:32:50.921Z,50.70
2023-02-16T19:34:52.436Z,54.55
2023-02-16T19:36:54.061Z,53.92
2023-02-16T19:38:55.704Z,52.95
2023-02-16T19:40:57.499Z,52.10
2023-02-16T19:42:58.956Z,49.47
2023-02-16T19:45:00.431Z,53.97
2023-02-16T19:47:03.186Z,53.55
2023-02-16T19:49:04.947Z,55.88
2023-02-16T19:51:07.830Z,55.80
2023-02-16T19:53:09.338Z,55.97
2023-02-16T19:55:11.620Z,53.10
2023-02-16T19:57:13.246Z,58.88
2023-02-16T19:59:15.378Z,54.95
2023-02-16T20:01:19.923Z,63.88
2023-02-16T20:03:21.398Z,57.50
2023-02-16T20:05:22.880Z,57.38
2023-02-16T20:07:24.338Z,58.70
2023-02-16T20:09:25.819Z,65.57
2023-02-16T20:11:28.670Z,60.00
2023-02-16T20:13:30.171Z,60.75
2023-02-16T20:15:31.782Z,65.63
2023-02-16T20:17:33.268Z,64.80
2023-02-16T20:19:34.716Z,65.40
2023-02-16T20:21:36.356Z,63.13
2023-02-16T20:23:38.798Z,68.53
2023-02-16T20:25:40.323Z,68.68
2023-02-16T20:27:42.075Z,63.92
2023-02-16T20:29:43.632Z,60.10
2023-02-16T20:31:52.491Z,63.17
2023-02-16T20:33:54.369Z,64.05
2023-02-16T20:35:55.865Z,63.60
2023-02-16T20:37:57.325Z,67.00
2023-02-16T20:39:59.008Z,64.78
2023-02-16T20:42:00.504Z,63.17
2023-02-16T20:44:02.898Z,66.85
2023-02-16T20:46:06.519Z,65.40
2023-02-16T20:48:09.513Z,68.03
2023-02-16T20:50:11.247Z,63.50
2023-02-16T20:52:12.757Z,70.47
2023-02-16T20:54:14.351Z,69.15
2023-02-16T20:56:24.161Z,62.58
2023-02-16T20:58:25.612Z,62.70
2023-02-16T21:00:27.461Z,70.20
2023-02-16T21:02:28.974Z,68.20
2023-02-16T21:04:30.646Z,65.82
2023-02-16T21:06:32.517Z,66.05
2023-02-16T21:08:34.081Z,67.82
2023-02-16T21:10:35.666Z,69.10
2023-02-16T21:12:37.151Z,68.57
2023-02-16T21:14:38.708Z,69.20
2023-02-16T21:16:41.084Z,60.72
2023-02-16T21:18:43.274Z,63.38
2023-02-16T21:20:45.057Z,64.30
2023-02-16T21:22:46.643Z,63.78
2023-02-16T21:24:48.136Z,62.72
2023-02-16T21:26:49.731Z,64.97
2023-02-16T21:28:52.148Z,64.65
2023-02-16T21:30:54.217Z,70.60
2023-02-16T21:32:56.039Z,64.72
2023-02-16T21:34:57.562Z,65.28
2023-02-16T21:36:59.058Z,61.95
2023-02-16T21:39:02.837Z,60.28
2023-02-16T21:41:25.976Z,66.63
2023-02-16T21:43:27.566Z,62.95
2023-02-16T21:45:29.227Z,59.47
2023-02-16T21:47:49.437Z,65.35
2023-02-16T21:49:50.907Z,58.78
2023-02-16T21:51:52.548Z,57.95
2023-02-16T21:53:54.491Z,57.15
2023-02-16T21:56:14.791Z,57.92
2023-02-16T21:58:16.598Z,54.25
2023-02-16T22:00:18.108Z,62.05
2023-02-16T22:02:19.574Z,60.17
2023-02-16T22:04:22.711Z,56.60
2023-02-16T22:06:34.524Z,57.15
2023-02-16T22:08:38.078Z,58.17
2023-02-16T22:10:39.630Z,56.53
2023-02-16T22:12:41.095Z,62.10
2023-02-16T22:14:42.572Z,59.88
2023-02-16T22:16:46.393Z,57.53
2023-02-16T22:18:48.973Z,55.63
2023-02-16T22:20:50.470Z,56.28
2023-02-16T22:22:53.486Z,49.72
2023-02-16T22:24:54.943Z,55.13
2023-02-16T22:26:56.394Z,55.20
2023-02-16T22:28:58.624Z,53.30
2023-02-16T22:31:07.218Z,57.20
2023-02-16T22:33:08.801Z,55.17
2023-02-16T22:35:10.286Z,58.35
2023-02-16T22:37:11.764Z,56.85
2023-02-16T22:39:14.234Z,55.50
2023-02-16T22:41:15.732Z,53.08
2023-02-16T22:43:17.204Z,52.45
2023-02-16T22:45:18.687Z,51.92
2023-02-16T22:47:20.164Z,55.03
2023-02-16T22:49:21.705Z,50.95
2023-02-16T22:51:23.234Z,48.60
2023-02-16T22:53:26.921Z,50.90
2023-02-16T22:55:28.512Z,48.03
2023-02-16T22:57:30.048Z,55.33
2023-02-16T22:59:31.517Z,51.88
2023-02-16T23:01:33.355Z,44.30
2023-02-16T23:03:34.795Z,46.30
2023-02-16T23:05:36.272Z,47.78
2023-02-16T23:07:37.838Z,45.22
2023-02-16T23:09:39.297Z,44.95
2023-02-16T23:11:40.892Z,39.88
2023-02-16T23:13:42.360Z,41.58
2023-02-16T23:15:43.832Z,38.03
2023-02-16T23:17:45.278Z,41.08
2023-02-16T23:19:50.287Z,36.80
2023-02-16T23:21:53.672Z,39.95
2023-02-16T23:23:55.951Z,38.50
2023-02-16T23:25:57.459Z,37.10
2023-02-16T23:27:59.900Z,36.30
2023-02-16T23:30:01.513Z,39.13
2023-02-16T23:32:05.512Z,37.17
2023-02-16T23:34:08.019Z,37.55
2023-02-16T23:36:10.019Z,37.90
2023-02-16T23:38:14.368Z,34.67
2023-02-16T23:40:15.848Z,34.58
2023-02-16T23:42:17.308Z,30.58
2023-02-16T23:44:18.778Z,33.08
2023-02-16T23:46:20.289Z,31.17
2023-02-16T23:48:23.095Z,30.15
2023-02-16T23:50:26.088Z,29.85
2023-02-16T23:52:27.558Z,28.85
2023-02-16T23:54:29.123Z,30.33
2023-02-16T23:56:30.672Z,28.45
2023-02-16T23:58:42.630Z,26.77
